Terminal Aerodrome Forecast
Issued by NWS Newport/Morehead City, NC

Home | Current Version | Previous Version | Text Only | Print | Product List | Glossary On
Versions: 1 2 3 4 5 6 7 8 9 10 11 12 13 14
407
FTUS42 KMHX 212321
TAFEWN
TAF
KEWN 212321Z 2200/2224 00000KT P6SM SKC
     FM220400 09006KT P6SM VCSH BKN060
     FM220800 04005KT P6SM -SHRA OVC025
     FM221400 02011KT P6SM OVC035
     FM221700 01013KT P6SM SCT200=

USA.gov is the U.S. government's official web portal to all federal, state and local government web resources and services.